Time;durP1;ratioP1;P1;durP2;ratioP2;P2;SDS_P1;SDS_P2;PMS_P1;PMS_P2;Temp;Humidity;BMP_temperature;BMP_pressure;BME280_temperature;BME280_humidity;BME280_pressure;Samples;Min_cycle;Max_cycle;Signal;HPM_P1;HPM_P2
2023/08/17 00:04:55;;;;;;;31.92;28.08;;;;;;;19.73;91.69;97763.34;10453657;28;20036;-55
2023/08/17 00:09:54;;;;;;;33.78;26.85;;;;;;;19.70;91.56;97760.84;10453675;28;20040;-55
2023/08/17 00:14:54;;;;;;;31.70;28.38;;;;;;;19.64;91.83;97763.69;10455309;28;20032;-55
2023/08/17 00:19:53;;;;;;;31.63;28.23;;;;;;;19.62;91.64;97762.88;10454624;28;20123;-55
2023/08/17 00:24:52;;;;;;;30.88;27.35;;;;;;;19.57;91.98;97770.97;10454434;28;20024;-55
2023/08/17 00:29:51;;;;;;;31.75;28.20;;;;;;;19.51;92.52;97765.03;10454097;28;20119;-55
2023/08/17 00:34:50;;;;;;;36.35;29.85;;;;;;;19.37;92.32;97742.72;10455853;28;20031;-55
2023/08/17 00:39:49;;;;;;;31.98;27.75;;;;;;;19.37;93.79;97766.41;10457280;28;20123;-55
2023/08/17 00:44:48;;;;;;;33.35;29.67;;;;;;;19.33;93.47;97764.78;10455027;28;20071;-55
2023/08/17 00:49:47;;;;;;;30.88;27.58;;;;;;;19.28;93.30;97766.75;10454948;28;20115;-55
2023/08/17 00:54:46;;;;;;;33.47;29.88;;;;;;;19.31;93.39;97766.63;10455054;28;20071;-55
2023/08/17 00:59:46;;;;;;;32.05;28.58;;;;;;;19.27;93.27;97753.63;10455694;28;20072;-55
2023/08/17 01:04:46;;;;;;;32.45;28.73;;;;;;;19.27;93.25;97761.53;10455505;28;20051;-55
2023/08/17 01:09:45;;;;;;;33.55;29.98;;;;;;;19.21;93.05;97758.19;10455912;28;20504;-55
2023/08/17 01:14:56;;;;;;;32.80;29.17;;;;;;;19.18;93.69;97754.81;10455303;28;20430;-55
2023/08/17 01:19:57;;;;;;;31.80;28.45;;;;;;;19.05;94.00;97746.50;10455135;28;20090;-55
2023/08/17 01:24:59;;;;;;;34.25;29.83;;;;;;;19.02;94.00;97760.63;10455418;28;20055;-55
2023/08/17 01:29:58;;;;;;;33.03;29.10;;;;;;;18.97;94.26;97757.31;10453079;28;20533;-55
2023/08/17 01:35:09;;;;;;;33.13;29.42;;;;;;;18.91;95.08;97762.75;10452530;28;20545;-55
2023/08/17 01:40:09;;;;;;;35.65;31.13;;;;;;;18.69;95.07;97743.38;10451112;28;20866;-55
2023/08/17 01:45:08;;;;;;;33.63;29.30;;;;;;;18.74;95.23;97754.59;10451418;28;20059;-55
2023/08/17 01:50:08;;;;;;;35.17;29.98;;;;;;;18.69;95.51;97760.03;10451548;28;20082;-55
2023/08/17 01:55:08;;;;;;;36.00;31.60;;;;;;;18.51;95.59;97729.91;10450892;28;20063;-55
2023/08/17 02:00:10;;;;;;;37.95;32.35;;;;;;;18.61;95.66;97749.72;10450721;28;20066;-55
2023/08/17 02:05:09;;;;;;;41.15;31.92;;;;;;;18.55;95.62;97749.03;10451359;28;20544;-55
2023/08/17 02:10:08;;;;;;;40.50;33.92;;;;;;;18.53;95.72;97754.38;10450160;28;20035;-56
2023/08/17 02:15:08;;;;;;;42.10;36.33;;;;;;;18.51;95.63;97753.56;10450038;28;20060;-56
2023/08/17 02:20:08;;;;;;;43.03;35.42;;;;;;;18.50;95.68;97756.22;10448169;28;20074;-54
2023/08/17 02:25:08;;;;;;;45.17;36.33;;;;;;;18.37;95.51;97740.03;10448777;28;20063;-54
2023/08/17 02:30:07;;;;;;;41.70;34.08;;;;;;;18.19;95.64;97723.94;10450481;28;20059;-56
2023/08/17 02:35:07;;;;;;;43.65;34.35;;;;;;;18.37;95.59;97750.53;10449297;28;20534;-56
2023/08/17 02:40:06;;;;;;;40.47;35.00;;;;;;;18.34;95.45;97750.63;10449423;28;20051;-54
2023/08/17 02:45:07;;;;;;;44.47;36.33;;;;;;;18.30;95.85;97749.88;10449878;28;20099;-54
2023/08/17 02:50:06;;;;;;;47.70;38.17;;;;;;;18.24;95.83;97752.69;10449313;28;20109;-55
2023/08/17 02:55:05;;;;;;;45.17;38.08;;;;;;;18.19;95.89;97751.97;10448479;28;20131;-54
2023/08/17 03:00:05;;;;;;;46.70;38.90;;;;;;;18.13;96.33;97749.56;10450094;28;20521;-54
2023/08/17 03:05:04;;;;;;;54.75;39.10;;;;;;;18.05;96.35;97735.78;10448464;28;20051;-54
2023/08/17 03:10:04;;;;;;;52.10;39.03;;;;;;;18.05;96.71;97747.16;10448630;28;20131;-54
2023/08/17 03:15:05;;;;;;;51.88;39.30;;;;;;;18.06;96.81;97753.25;10451823;28;20060;-55
2023/08/17 03:20:06;;;;;;;54.22;41.00;;;;;;;18.07;96.77;97758.47;10456443;28;20067;-55
2023/08/17 03:25:06;;;;;;;50.58;40.22;;;;;;;18.03;96.88;97746.31;10456597;28;20062;-54
2023/08/17 03:30:05;;;;;;;57.45;40.22;;;;;;;18.02;96.70;97749.03;10457734;28;20064;-54
2023/08/17 03:35:05;;;;;;;51.38;39.85;;;;;;;17.95;96.66;97745.72;10458083;28;20066;-55
2023/08/17 03:40:04;;;;;;;53.53;39.70;;;;;;;17.96;96.74;97758.81;10459836;28;20467;-55
2023/08/17 03:45:04;;;;;;;55.67;41.88;;;;;;;17.97;96.72;97759.66;10458924;28;20067;-55
2023/08/17 03:50:03;;;;;;;60.38;40.50;;;;;;;17.97;97.32;97767.53;10459674;28;20079;-54
2023/08/17 03:55:03;;;;;;;51.05;38.72;;;;;;;17.92;96.97;97759.81;10458783;28;20642;-54
2023/08/17 04:00:02;;;;;;;48.30;37.35;;;;;;;17.99;96.99;97771.00;10459839;28;20074;-55
2023/08/17 04:05:01;;;;;;;41.42;34.05;;;;;;;17.81;97.78;97771.53;10458539;28;20462;-54
2023/08/17 04:10:00;;;;;;;44.72;35.28;;;;;;;17.80;97.39;97782.94;10458999;28;20469;-54
2023/08/17 04:14:59;;;;;;;35.97;30.48;;;;;;;17.47;97.22;97725.25;10458477;28;20772;-54
2023/08/17 04:19:58;;;;;;;37.58;30.58;;;;;;;17.80;97.44;97775.06;10456124;28;20406;-54
2023/08/17 04:24:57;;;;;;;34.35;30.10;;;;;;;17.82;97.74;97781.97;10456960;28;20486;-54
2023/08/17 04:29:57;;;;;;;38.03;30.95;;;;;;;17.69;97.44;97763.09;10458405;28;20050;-54
2023/08/17 04:34:56;;;;;;;45.33;33.95;;;;;;;18.01;96.52;97798.06;10453421;28;20104;-55
2023/08/17 04:39:55;;;;;;;35.90;32.03;;;;;;;18.00;96.72;97798.94;10454119;28;20086;-55
2023/08/17 04:44:54;;;;;;;42.65;33.20;;;;;;;18.07;95.76;97784.72;10452639;28;20426;-54
2023/08/17 04:49:52;;;;;;;43.20;33.45;;;;;;;18.00;96.26;97790.22;10450499;28;20036;-54
2023/08/17 04:54:52;;;;;;;47.40;32.88;;;;;;;18.05;96.75;97790.94;10450717;28;20035;-54
2023/08/17 04:59:51;;;;;;;37.72;33.50;;;;;;;18.18;97.09;97798.38;10449764;28;20084;-55
2023/08/17 05:04:49;;;;;;;36.40;30.67;;;;;;;18.35;96.51;97799.63;10447884;28;20105;-54
2023/08/17 05:09:50;;;;;;;31.10;27.67;;;;;;;18.45;96.43;97806.31;10449429;28;20114;-54
2023/08/17 05:14:49;;;;;;;31.63;27.15;;;;;;;18.50;96.28;97803.53;10451184;28;21011;-54
2023/08/17 05:19:48;;;;;;;42.03;26.30;;;;;;;18.56;96.12;97808.59;10449891;28;20135;-54
2023/08/17 05:24:47;;;;;;;52.60;27.50;;;;;;;18.77;95.68;97809.69;10450616;28;20512;-54
2023/08/17 05:29:46;;;;;;;33.17;23.17;;;;;;;19.15;95.01;97805.75;10383227;27;20484;-55
2023/08/17 05:34:46;;;;;;;24.92;22.52;;;;;;;19.49;92.97;97814.25;10362601;28;20118;-55
2023/08/17 05:39:45;;;;;;;24.58;22.08;;;;;;;19.40;91.80;97771.56;10359971;28;20064;-55
2023/08/17 05:44:45;;;;;;;25.40;22.30;;;;;;;19.71;91.66;97802.03;10361053;28;20127;-55
2023/08/17 05:49:43;;;;;;;25.70;23.02;;;;;;;19.89;91.00;97804.91;10365558;28;20065;-54
2023/08/17 05:54:42;;;;;;;26.83;23.92;;;;;;;20.10;90.52;97797.97;10364417;28;20111;-55
2023/08/17 05:59:41;;;;;;;28.92;23.67;;;;;;;20.28;90.47;97800.75;10365240;28;20069;-55
2023/08/17 06:04:40;;;;;;;24.67;22.08;;;;;;;20.31;90.93;97806.81;10362477;28;20455;-55
2023/08/17 06:09:39;;;;;;;23.30;20.80;;;;;;;20.52;90.01;97813.91;10357079;28;20036;-54
2023/08/17 06:14:38;;;;;;;24.50;22.00;;;;;;;20.54;90.14;97813.81;10355634;28;20082;-55
2023/08/17 06:19:39;;;;;;;23.48;20.83;;;;;;;20.89;89.47;97805.34;10356838;28;20120;-54
2023/08/17 06:24:38;;;;;;;22.73;20.10;;;;;;;21.28;88.80;97806.34;10344316;28;20128;-55
2023/08/17 06:29:37;;;;;;;22.27;19.95;;;;;;;21.82;86.98;97802.19;10355320;28;20128;-55
2023/08/17 06:34:36;;;;;;;22.17;19.08;;;;;;;22.29;84.65;97812.34;10362090;28;20032;-55
2023/08/17 06:39:35;;;;;;;19.95;17.40;;;;;;;22.84;80.62;97816.78;10358219;28;20053;-55
2023/08/17 06:44:34;;;;;;;19.13;17.15;;;;;;;23.08;78.90;97801.47;10361753;28;20094;-55
2023/08/17 06:49:33;;;;;;;18.75;16.70;;;;;;;23.57;76.50;97779.56;10370700;28;20029;-55
2023/08/17 06:54:32;;;;;;;18.52;16.58;;;;;;;23.69;73.83;97792.13;10370248;28;20138;-55
2023/08/17 06:59:33;;;;;;;19.85;16.98;;;;;;;24.06;73.11;97798.94;10368969;28;20080;-55
2023/08/17 07:04:32;;;;;;;18.52;15.65;;;;;;;24.42;71.50;97813.78;10364890;28;20774;-55
2023/08/17 07:09:31;;;;;;;18.70;16.63;;;;;;;24.71;70.74;97819.25;10369389;28;20487;-55
2023/08/17 07:14:30;;;;;;;17.42;15.57;;;;;;;24.45;70.46;97805.66;10367921;28;20025;-55
2023/08/17 07:19:28;;;;;;;18.58;16.35;;;;;;;24.56;72.54;97818.31;10370971;28;20064;-55
2023/08/17 07:24:27;;;;;;;17.35;15.52;;;;;;;24.83;69.36;97813.22;10366545;28;20158;-55
2023/08/17 07:29:26;;;;;;;18.17;14.95;;;;;;;24.89;69.13;97774.88;10364766;28;20057;-56
2023/08/17 07:34:25;;;;;;;18.23;15.18;;;;;;;25.29;67.84;97815.00;10361800;28;20546;-55
2023/08/17 07:39:25;;;;;;;17.45;15.68;;;;;;;25.32;66.86;97807.72;10363087;28;20588;-55
2023/08/17 07:44:24;;;;;;;16.13;13.05;;;;;;;25.35;67.16;97793.38;10364529;28;20064;-55
2023/08/17 07:49:24;;;;;;;15.98;13.63;;;;;;;25.14;66.88;97784.06;10360062;28;20041;-55
2023/08/17 07:54:23;;;;;;;18.48;14.40;;;;;;;25.25;67.08;97782.47;10364896;28;20060;-55
2023/08/17 07:59:22;;;;;;;17.05;14.10;;;;;;;25.05;65.92;97809.34;10361688;28;20080;-55
2023/08/17 08:04:21;;;;;;;16.52;14.82;;;;;;;25.10;65.84;97788.69;10366205;28;20056;-55
2023/08/17 08:09:21;;;;;;;17.23;13.55;;;;;;;24.53;67.38;97762.78;10366923;28;20043;-57
2023/08/17 08:14:20;;;;;;;15.80;12.60;;;;;;;24.73;66.16;97790.84;10371781;28;20669;-55
2023/08/17 08:19:19;;;;;;;16.20;14.13;;;;;;;24.56;66.17;97751.13;10358156;28;20511;-55
2023/08/17 08:24:18;;;;;;;16.92;13.70;;;;;;;25.15;65.53;97775.13;10364780;28;20033;-55
2023/08/17 08:29:16;;;;;;;14.60;12.25;;;;;;;25.07;62.94;97764.97;10364572;28;20132;-55
2023/08/17 08:34:15;;;;;;;16.63;12.40;;;;;;;25.45;62.88;97761.78;10360350;28;20033;-55
2023/08/17 08:39:14;;;;;;;15.38;11.13;;;;;;;25.24;62.40;97770.13;10367052;28;20033;-55
2023/08/17 08:44:14;;;;;;;15.90;11.60;;;;;;;25.26;63.27;97746.13;10362235;28;20142;-55
2023/08/17 08:49:19;;;;;;;14.73;11.40;;;;;;;25.47;62.84;97762.56;10360087;28;20076;-56
2023/08/17 08:54:22;;;;;;;14.48;11.60;;;;;;;25.88;61.57;97764.50;10365748;28;20552;-55
2023/08/17 08:59:23;;;;;;;16.63;11.25;;;;;;;25.78;61.52;97752.72;10362789;28;20082;-55
2023/08/17 09:04:23;;;;;;;13.73;11.23;;;;;;;26.09;59.98;97756.91;10362418;28;20063;-55
2023/08/17 09:09:22;;;;;;;12.20;10.63;;;;;;;26.40;59.04;97753.19;10350900;28;20538;-55
2023/08/17 09:14:21;;;;;;;14.73;10.63;;;;;;;26.70;58.06;97741.47;10349142;28;20056;-56
2023/08/17 09:19:20;;;;;;;14.98;10.40;;;;;;;27.04;58.29;97724.06;10346685;28;20875;-55
2023/08/17 09:24:19;;;;;;;13.23;10.30;;;;;;;27.26;55.80;97726.13;10353324;28;20443;-55
2023/08/17 09:29:20;;;;;;;15.30;9.52;;;;;;;27.53;54.76;97719.84;10349724;28;20021;-55
2023/08/17 09:34:19;;;;;;;12.05;9.73;;;;;;;27.55;54.56;97725.94;10354387;28;20136;-55
2023/08/17 09:39:18;;;;;;;14.18;9.85;;;;;;;27.49;53.10;97723.69;10340748;28;20504;-55
2023/08/17 09:44:17;;;;;;;16.15;9.63;;;;;;;27.56;53.40;97714.28;10362911;28;20044;-55
2023/08/17 09:49:18;;;;;;;11.43;9.27;;;;;;;27.87;53.73;97712.09;10340877;28;20472;-55
2023/08/17 09:54:31;;;;;;;12.35;9.40;;;;;;;27.96;52.36;97695.44;10343750;28;20064;-56
2023/08/17 09:59:30;;;;;;;11.13;9.45;;;;;;;28.00;51.65;97692.41;10353970;28;20065;-55
2023/08/17 10:04:33;;;;;;;11.13;7.78;;;;;;;28.21;50.85;97690.03;10351948;28;20063;-59
2023/08/17 10:09:39;;;;;;;10.80;9.02;;;;;;;28.29;49.77;97648.56;10353933;28;20124;-55
2023/08/17 10:14:46;;;;;;;11.50;8.35;;;;;;;28.46;50.63;97675.72;10344498;28;20794;-56
2023/08/17 10:19:56;;;;;;;12.18;8.77;;;;;;;28.43;50.15;97675.06;10353191;28;20124;-56
2023/08/17 10:24:59;;;;;;;12.82;9.02;;;;;;;28.73;50.36;97657.75;10349041;28;20068;-56
2023/08/17 10:29:59;;;;;;;13.07;8.65;;;;;;;29.29;49.48;97660.50;10355796;28;20120;-55
2023/08/17 10:34:58;;;;;;;9.73;7.47;;;;;;;29.30;47.58;97659.56;10354334;28;20124;-56
2023/08/17 10:39:58;;;;;;;11.25;8.40;;;;;;;29.48;47.90;97660.78;10351158;28;20132;-56
2023/08/17 10:44:57;;;;;;;8.98;7.78;;;;;;;29.45;46.67;97642.28;10357664;28;20133;-56
2023/08/17 10:50:06;;;;;;;9.85;7.75;;;;;;;29.44;46.42;97651.28;10354950;28;20111;-56
2023/08/17 10:55:07;;;;;;;9.38;7.57;;;;;;;29.13;45.76;97606.53;10358636;28;20567;-55
2023/08/17 11:00:13;;;;;;;10.45;7.30;;;;;;;29.69;46.16;97646.63;10351750;28;20155;-56
2023/08/17 11:05:12;;;;;;;8.35;6.85;;;;;;;29.84;45.15;97640.09;10352701;28;20052;-56
2023/08/17 11:10:20;;;;;;;9.70;6.85;;;;;;;29.52;45.51;97628.44;10346443;28;20698;-56
2023/08/17 11:15:19;;;;;;;;;;;;;;;29.84;44.92;97637.41;10352801;28;20136;-56
2023/08/17 11:20:22;;;;;;;11.07;6.97;;;;;;;30.12;45.35;97614.56;10348365;28;20007;-56
2023/08/17 11:25:21;;;;;;;10.00;7.13;;;;;;;30.36;44.78;97610.81;10353993;28;20105;-55
2023/08/17 11:30:25;;;;;;;9.40;6.93;;;;;;;30.29;43.93;97607.81;10355551;28;20719;-56
2023/08/17 11:35:24;;;;;;;9.10;6.90;;;;;;;30.44;42.91;97616.41;10353229;28;20124;-56
2023/08/17 11:40:25;;;;;;;9.73;6.20;;;;;;;29.71;43.37;97516.31;10364887;28;20131;-56
2023/08/17 11:45:24;;;;;;;8.82;6.53;;;;;;;30.04;42.98;97594.78;10358422;28;20072;-56
2023/08/17 11:50:25;;;;;;;10.98;6.38;;;;;;;29.81;42.75;97544.00;10351054;28;20133;-56
2023/08/17 11:55:24;;;;;;;12.27;6.10;;;;;;;30.25;41.85;97579.59;10361454;28;20049;-56
2023/08/17 12:00:25;;;;;;;6.53;5.25;;;;;;;30.55;40.95;97572.66;10359380;28;20028;-56
2023/08/17 12:05:26;;;;;;;6.63;5.32;;;;;;;30.62;40.82;97573.81;10358203;28;20133;-55
2023/08/17 12:10:31;;;;;;;7.80;5.50;;;;;;;30.77;40.50;97577.00;10359006;28;20621;-55
2023/08/17 12:15:32;;;;;;;9.80;5.40;;;;;;;30.95;38.41;97566.53;10351450;28;20444;-55
2023/08/17 12:20:35;;;;;;;6.50;5.43;;;;;;;30.97;38.03;97559.22;10342167;28;20116;-56
2023/08/17 12:25:34;;;;;;;9.23;5.78;;;;;;;31.28;37.52;97551.16;10355392;28;20060;-55
2023/08/17 12:30:36;;;;;;;7.90;4.95;;;;;;;31.84;37.73;97544.38;10358538;28;20033;-56
2023/08/17 12:35:35;;;;;;;8.45;5.45;;;;;;;32.07;36.33;97532.41;10358254;28;20634;-55
2023/08/17 12:40:34;;;;;;;5.80;5.22;;;;;;;31.88;35.93;97479.53;10355594;28;20523;-56
2023/08/17 12:45:32;;;;;;;7.05;4.78;;;;;;;32.33;34.52;97538.00;10349203;28;20053;-56
2023/08/17 12:50:32;;;;;;;6.00;4.57;;;;;;;31.67;35.11;97411.78;10352160;28;20388;-57
2023/08/17 12:55:30;;;;;;;8.27;4.85;;;;;;;32.19;34.40;97530.41;10348676;28;20124;-56
2023/08/17 13:00:30;;;;;;;8.73;4.70;;;;;;;32.17;34.54;97527.84;10358409;28;20025;-57
2023/08/17 13:05:28;;;;;;;7.38;4.80;;;;;;;31.82;34.54;97520.34;10355198;28;20061;-57
2023/08/17 13:10:28;;;;;;;8.68;5.30;;;;;;;31.83;34.31;97522.06;10351091;28;20128;-56
2023/08/17 13:15:28;;;;;;;5.88;4.45;;;;;;;31.81;34.31;97505.25;10354359;28;20888;-56
2023/08/17 13:20:27;;;;;;;8.70;4.60;;;;;;;31.87;34.46;97522.59;10360353;28;20144;-56
2023/08/17 13:25:26;;;;;;;10.10;4.32;;;;;;;31.61;34.44;97506.22;10345186;28;20052;-56
2023/08/17 13:30:25;;;;;;;8.45;4.88;;;;;;;32.06;33.92;97513.75;10339586;28;20037;-56
2023/08/17 13:35:24;;;;;;;9.07;5.00;;;;;;;32.46;33.94;97512.69;10335403;28;20121;-56
2023/08/17 13:40:23;;;;;;;7.93;4.63;;;;;;;32.77;32.77;97500.75;10337280;28;20060;-56
2023/08/17 13:45:22;;;;;;;9.43;4.43;;;;;;;32.70;32.82;97515.75;10333306;28;20069;-56
2023/08/17 13:50:21;;;;;;;6.68;4.40;;;;;;;32.55;33.47;97514.50;10361269;28;20111;-56
2023/08/17 13:55:20;;;;;;;8.65;4.70;;;;;;;32.35;33.20;97514.56;10333923;28;20117;-56
2023/08/17 14:00:19;;;;;;;6.75;4.68;;;;;;;32.18;33.08;97501.88;10361550;28;20139;-57
2023/08/17 14:05:18;;;;;;;5.57;4.60;;;;;;;31.96;33.83;97514.56;10360859;28;20140;-56
2023/08/17 14:10:17;;;;;;;6.65;4.70;;;;;;;31.59;34.16;97515.28;10356365;28;20124;-56
2023/08/17 14:15:16;;;;;;;6.13;4.93;;;;;;;31.23;34.59;97475.66;10357629;28;20036;-56
2023/08/17 14:20:15;;;;;;;8.93;4.78;;;;;;;31.21;34.76;97515.16;10353450;28;20036;-56
2023/08/17 14:25:15;;;;;;;8.52;4.50;;;;;;;31.37;35.05;97510.94;10361628;28;20048;-56
2023/08/17 14:30:14;;;;;;;12.57;5.13;;;;;;;31.56;35.09;97495.91;10361457;28;20120;-56
2023/08/17 14:35:13;;;;;;;7.55;4.45;;;;;;;31.82;34.82;97504.25;10360418;28;20037;-56
2023/08/17 14:40:13;;;;;;;20.13;6.30;;;;;;;31.96;34.87;97502.97;10337620;28;20057;-56
2023/08/17 14:45:13;;;;;;;8.80;5.35;;;;;;;31.97;34.74;97499.31;10360634;28;20129;-56
2023/08/17 14:50:13;;;;;;;19.15;6.70;;;;;;;31.82;34.67;97504.25;10364387;28;20068;-56
2023/08/17 14:55:13;;;;;;;7.38;5.05;;;;;;;31.53;34.86;97501.56;10356721;28;20107;-56
2023/08/17 15:00:13;;;;;;;8.38;4.93;;;;;;;31.49;35.30;97505.47;10361681;28;20075;-56
2023/08/17 15:05:12;;;;;;;5.95;4.82;;;;;;;31.64;35.81;97497.88;10361756;28;20112;-56
2023/08/17 15:10:11;;;;;;;9.05;5.25;;;;;;;31.80;35.35;97500.84;10362536;28;20060;-56
2023/08/17 15:15:10;;;;;;;8.38;5.22;;;;;;;31.84;34.93;97491.53;10373243;28;20025;-56
2023/08/17 15:20:09;;;;;;;9.07;4.68;;;;;;;31.98;35.12;97493.78;10367447;28;20059;-56
2023/08/17 15:25:08;;;;;;;16.75;6.18;;;;;;;31.91;34.54;97497.19;10342559;28;20065;-56
2023/08/17 15:30:08;;;;;;;7.03;4.75;;;;;;;31.83;33.97;97497.91;10345099;28;20104;-56
2023/08/17 15:35:08;;;;;;;10.55;4.82;;;;;;;31.65;35.32;97503.13;10355014;28;20132;-56
2023/08/17 15:40:08;;;;;;;9.07;5.65;;;;;;;31.46;34.99;97458.31;10368244;28;20071;-56
2023/08/17 15:45:07;;;;;;;5.97;5.07;;;;;;;31.52;35.51;97473.91;10370147;28;20132;-56
2023/08/17 15:50:06;;;;;;;13.27;5.63;;;;;;;31.62;35.35;97483.78;10369795;28;20064;-56
2023/08/17 15:55:05;;;;;;;9.18;5.60;;;;;;;31.56;34.70;97479.81;10369656;28;20120;-58
2023/08/17 16:00:05;;;;;;;9.10;5.65;;;;;;;31.53;34.93;97489.00;10368859;28;20937;-56
2023/08/17 16:05:04;;;;;;;8.70;5.03;;;;;;;31.40;35.55;97488.38;10371881;28;20060;-56
2023/08/17 16:10:05;;;;;;;8.15;5.25;;;;;;;31.28;35.98;97500.22;10368126;28;20067;-56
2023/08/17 16:15:04;;;;;;;9.63;5.35;;;;;;;31.24;36.31;97496.09;10361803;28;20145;-56
2023/08/17 16:20:04;;;;;;;14.80;5.90;;;;;;;31.07;36.03;97471.66;10351388;28;20462;-55
2023/08/17 16:25:04;;;;;;;9.75;7.07;;;;;;;31.10;36.73;97503.56;10351928;28;20112;-56
2023/08/17 16:30:03;;;;;;;12.73;9.38;;;;;;;30.83;36.25;97503.28;10367164;28;20068;-56
2023/08/17 16:35:02;;;;;;;11.10;5.60;;;;;;;30.59;36.84;97496.44;10360373;28;20899;-56
2023/08/17 16:40:05;;;;;;;8.63;5.57;;;;;;;30.42;36.71;97499.69;10361934;28;20491;-56
2023/08/17 16:45:04;;;;;;;9.80;5.93;;;;;;;30.29;37.54;97505.25;10367757;28;20072;-56
2023/08/17 16:50:03;;;;;;;12.85;6.40;;;;;;;30.02;37.69;97503.06;10365981;28;20048;-56
2023/08/17 16:55:02;;;;;;;12.00;7.05;;;;;;;29.99;38.35;97509.53;10360330;28;20472;-56
2023/08/17 17:00:03;;;;;;;7.88;5.80;;;;;;;29.90;38.34;97524.53;10361554;28;20120;-56
2023/08/17 17:05:04;;;;;;;6.88;5.22;;;;;;;29.80;38.84;97528.91;10367175;28;20056;-55
2023/08/17 17:10:04;;;;;;;9.63;6.82;;;;;;;29.57;38.93;97511.25;10364093;28;20064;-56
2023/08/17 17:15:03;;;;;;;15.05;6.75;;;;;;;29.41;39.45;97536.56;10367866;28;20056;-56
2023/08/17 17:20:03;;;;;;;14.50;6.50;;;;;;;29.25;40.24;97536.06;10360921;28;20056;-56
2023/08/17 17:25:03;;;;;;;12.98;6.53;;;;;;;29.07;41.08;97543.78;10365019;28;20068;-57
2023/08/17 17:30:04;;;;;;;11.52;7.05;;;;;;;28.58;42.53;97512.91;10357806;28;20049;-57
2023/08/17 17:35:03;;;;;;;14.60;7.13;;;;;;;28.32;43.06;97526.44;10327963;28;20056;-57
2023/08/17 17:40:02;;;;;;;12.38;6.82;;;;;;;28.31;44.04;97550.56;10327451;28;20068;-57
2023/08/17 17:45:01;;;;;;;13.73;7.65;;;;;;;28.05;44.56;97561.38;10355532;28;20076;-56
2023/08/17 17:50:05;;;;;;;12.10;7.03;;;;;;;27.78;45.90;97570.47;10366045;28;20036;-56
2023/08/17 17:55:04;;;;;;;13.77;7.50;;;;;;;27.50;46.70;97565.50;10352450;28;20065;-56
2023/08/17 18:00:04;;;;;;;10.88;6.78;;;;;;;27.03;46.87;97543.09;10331967;28;20065;-56
2023/08/17 18:05:04;;;;;;;8.75;6.65;;;;;;;27.04;47.62;97577.59;10362664;28;20065;-56
2023/08/17 18:10:03;;;;;;;10.80;6.60;;;;;;;26.51;47.90;97529.81;10366982;28;20448;-57
2023/08/17 18:15:02;;;;;;;9.93;6.53;;;;;;;26.68;48.69;97587.19;10332927;28;20067;-56
2023/08/17 18:20:02;;;;;;;13.38;7.38;;;;;;;26.44;49.22;97575.53;10374242;28;20076;-56
2023/08/17 18:25:01;;;;;;;11.63;6.97;;;;;;;26.35;50.45;97595.66;10328207;28;20056;-57
2023/08/17 18:30:00;;;;;;;16.33;9.05;;;;;;;26.18;51.20;97594.09;10354617;28;20033;-57
2023/08/17 18:34:59;;;;;;;12.15;7.82;;;;;;;25.83;51.80;97576.03;10328468;28;20044;-57
2023/08/17 18:39:58;;;;;;;13.38;8.02;;;;;;;25.88;52.81;97608.47;10357123;28;20112;-57
2023/08/17 18:44:57;;;;;;;9.60;7.60;;;;;;;25.72;52.90;97610.44;10334416;28;20049;-57
2023/08/17 18:49:56;;;;;;;10.13;8.00;;;;;;;25.60;52.74;97611.19;10337282;28;20032;-56
2023/08/17 18:55:02;;;;;;;8.40;6.80;;;;;;;24.64;53.57;97491.53;10339228;28;20531;-56
2023/08/17 19:00:02;;;;;;;11.27;7.43;;;;;;;25.35;54.29;97631.34;10395512;28;20450;-56
2023/08/17 19:05:02;;;;;;;9.50;7.45;;;;;;;25.22;54.76;97620.66;10339575;28;20073;-55
2023/08/17 19:10:01;;;;;;;11.82;7.70;;;;;;;25.12;55.53;97624.81;10328000;28;20057;-55
2023/08/17 19:15:00;;;;;;;8.75;7.10;;;;;;;25.03;56.43;97617.41;10364301;28;20067;-55
2023/08/17 19:19:59;;;;;;;19.50;8.00;;;;;;;24.93;56.64;97632.22;10346456;28;20147;-55
2023/08/17 19:24:58;;;;;;;12.52;7.93;;;;;;;24.72;57.88;97634.34;10359324;28;20033;-55
2023/08/17 19:29:57;;;;;;;14.30;8.40;;;;;;;24.51;58.53;97624.06;10358607;28;20130;-55
2023/08/17 19:34:56;;;;;;;12.18;8.70;;;;;;;24.28;58.83;97599.75;10347276;28;20029;-56
2023/08/17 19:39:54;;;;;;;11.45;9.00;;;;;;;24.43;58.82;97626.34;10352792;28;20021;-56
2023/08/17 19:44:53;;;;;;;13.73;9.43;;;;;;;24.21;59.06;97595.75;10340347;28;20059;-56
2023/08/17 19:49:52;;;;;;;11.02;8.27;;;;;;;24.27;59.39;97629.03;10356012;28;20054;-56
2023/08/17 19:54:51;;;;;;;10.95;7.43;;;;;;;24.20;59.66;97627.69;10353211;28;20040;-56
2023/08/17 19:59:50;;;;;;;10.60;7.78;;;;;;;24.04;59.46;97623.22;10364224;28;20112;-55
2023/08/17 20:04:49;;;;;;;11.52;7.95;;;;;;;23.88;59.55;97606.50;10366665;28;20031;-55
2023/08/17 20:09:48;;;;;;;11.30;7.90;;;;;;;23.96;60.51;97628.13;10362591;28;20032;-55
2023/08/17 20:14:47;;;;;;;11.00;8.68;;;;;;;23.86;61.55;97637.53;10368686;28;20434;-54
2023/08/17 20:19:46;;;;;;;13.05;9.65;;;;;;;23.77;63.30;97645.97;10335089;28;20038;-55
2023/08/17 20:24:45;;;;;;;10.52;8.40;;;;;;;23.73;63.23;97641.81;10358628;28;20094;-55
2023/08/17 20:29:44;;;;;;;14.35;9.20;;;;;;;23.79;63.49;97636.16;10359967;28;20120;-55
2023/08/17 20:34:43;;;;;;;15.48;9.68;;;;;;;23.80;63.72;97632.59;10367829;28;20038;-55
2023/08/17 20:39:42;;;;;;;14.52;10.05;;;;;;;23.84;63.74;97623.50;10364445;28;20039;-55
2023/08/17 20:44:41;;;;;;;14.38;10.35;;;;;;;23.88;63.79;97630.34;10365600;28;20599;-55
2023/08/17 20:49:40;;;;;;;14.30;8.77;;;;;;;23.88;64.24;97622.38;10365335;28;20476;-55
2023/08/17 20:54:41;;;;;;;12.10;9.30;;;;;;;23.72;64.83;97605.66;10359731;28;20099;-55
2023/08/17 20:59:40;;;;;;;13.60;8.43;;;;;;;23.86;64.70;97629.56;10367273;28;20932;-56
2023/08/17 21:04:39;;;;;;;14.70;9.35;;;;;;;23.57;64.82;97580.91;10362015;28;20685;-56
2023/08/17 21:09:39;;;;;;;13.10;9.02;;;;;;;23.87;65.21;97631.28;10362266;28;20115;-56
2023/08/17 21:14:38;;;;;;;12.68;8.60;;;;;;;23.63;65.20;97597.31;10363239;28;20060;-56
2023/08/17 21:19:37;;;;;;;15.95;9.27;;;;;;;23.84;65.66;97632.31;10368779;28;20031;-56
2023/08/17 21:24:35;;;;;;;13.45;10.30;;;;;;;23.87;65.93;97646.34;10365104;28;20032;-55
2023/08/17 21:29:34;;;;;;;19.40;10.82;;;;;;;23.56;66.63;97600.34;10354054;28;20036;-56
2023/08/17 21:34:33;;;;;;;16.48;9.93;;;;;;;23.83;66.61;97649.16;10367835;28;20067;-56
2023/08/17 21:39:32;;;;;;;14.63;9.98;;;;;;;23.87;66.61;97651.66;10365971;28;20048;-56
2023/08/17 21:44:31;;;;;;;11.65;8.90;;;;;;;23.56;66.73;97598.59;10366581;28;21058;-56
2023/08/17 21:49:30;;;;;;;15.48;9.48;;;;;;;23.92;66.16;97654.88;10365631;28;20594;-56
2023/08/17 21:54:29;;;;;;;16.08;9.43;;;;;;;23.84;67.07;97652.66;10359712;28;20128;-56
2023/08/17 21:59:28;;;;;;;14.95;8.98;;;;;;;23.70;67.42;97639.31;10358005;28;20099;-56
2023/08/17 22:04:30;;;;;;;16.35;10.50;;;;;;;23.81;67.32;97658.97;10343226;28;20025;-56
2023/08/17 22:09:30;;;;;;;13.90;8.20;;;;;;;23.64;67.18;97638.72;10359997;28;20057;-56
2023/08/17 22:14:31;;;;;;;10.43;9.00;;;;;;;23.54;67.93;97660.53;10357675;28;20056;-56
2023/08/17 22:19:30;;;;;;;9.80;8.45;;;;;;;23.43;67.91;97653.97;10361631;28;20136;-56
2023/08/17 22:24:29;;;;;;;13.10;8.43;;;;;;;23.33;68.24;97657.22;10363254;28;20094;-56
2023/08/17 22:29:28;;;;;;;13.90;10.23;;;;;;;23.23;68.36;97655.09;10363375;28;20060;-56
2023/08/17 22:34:27;;;;;;;15.02;10.15;;;;;;;23.17;69.66;97649.25;10362660;28;20029;-55
2023/08/17 22:39:26;;;;;;;17.25;11.23;;;;;;;23.05;70.08;97664.00;10359023;28;20731;-56
2023/08/17 22:44:25;;;;;;;17.95;10.80;;;;;;;22.99;71.05;97669.59;10364015;28;20148;-56
2023/08/17 22:49:24;;;;;;;14.80;9.65;;;;;;;22.88;71.43;97666.66;10348262;28;20055;-56
2023/08/17 22:54:23;;;;;;;12.45;9.35;;;;;;;22.49;73.23;97670.41;10376533;28;20047;-56
2023/08/17 22:59:22;;;;;;;13.02;9.48;;;;;;;22.39;73.71;97673.50;10364164;28;20881;-55